East Jamaica, Vermont
Current Conditions -  °F | °C
As of 3:54 AM on Monday 20 Oct 2014 (Local Time) from KVSF Reporting Station
Clear Clear  
Wind Chill: 28°   Ceiling: Unl
Heat Index: 28°   Visibility: 10mi
Dew Point: 25°   Wind: 0mph
Humidity: 88%   Direction: NA
Pressure: 30.01"   Gusts: NA
Location:  43.1008°N, 72.8076°W
Report Text: KVSF 200754Z AUTO 00000KT 10SM CLR M02/M04 A3001 RMK AO2 SLP168 T10221039
Loading
Personal Weather Stations






























Interactive Weather Map
Tropical Storm Tracking
New forecast layout! Learn more

10-Day Weather Forecast

Advertisements
Track Severe Weather on mobile